sensor_id;sensor_type;location;lat;lon;timestamp;pressure;altitude;pressure_sealevel;temperature;humidity
41862;BME280;27537;57.134;-2.136;2023-03-16T00:02:25;99764.59;;;3.85;100.00
41862;BME280;27537;57.134;-2.136;2023-03-16T00:04:52;99762.94;;;3.82;100.00
41862;BME280;27537;57.134;-2.136;2023-03-16T00:07:20;99735.34;;;3.81;100.00
41862;BME280;27537;57.134;-2.136;2023-03-16T00:09:47;99713.75;;;3.80;100.00
41862;BME280;27537;57.134;-2.136;2023-03-16T00:12:16;99727.75;;;3.73;100.00
41862;BME280;27537;57.134;-2.136;2023-03-16T00:14:44;99785.63;;;4.07;100.00
41862;BME280;27537;57.134;-2.136;2023-03-16T00:17:13;99746.13;;;3.98;100.00
41862;BME280;27537;57.134;-2.136;2023-03-16T00:19:51;99759.78;;;4.04;100.00
41862;BME280;27537;57.134;-2.136;2023-03-16T00:22:26;99702.16;;;3.63;100.00
41862;BME280;27537;57.134;-2.136;2023-03-16T00:24:53;99696.28;;;3.56;100.00
41862;BME280;27537;57.134;-2.136;2023-03-16T00:27:21;99728.41;;;3.83;100.00
41862;BME280;27537;57.134;-2.136;2023-03-16T00:29:50;99726.41;;;3.93;100.00
41862;BME280;27537;57.134;-2.136;2023-03-16T00:32:24;99745.16;;;4.03;100.00
41862;BME280;27537;57.134;-2.136;2023-03-16T00:34:51;99717.09;;;3.86;100.00
41862;BME280;27537;57.134;-2.136;2023-03-16T00:37:19;99754.09;;;4.24;100.00
41862;BME280;27537;57.134;-2.136;2023-03-16T00:39:49;99741.75;;;4.32;100.00
41862;BME280;27537;57.134;-2.136;2023-03-16T00:42:18;99737.22;;;4.40;100.00
41862;BME280;27537;57.134;-2.136;2023-03-16T00:44:45;99718.75;;;4.19;100.00
41862;BME280;27537;57.134;-2.136;2023-03-16T00:47:12;99706.56;;;4.23;100.00
41862;BME280;27537;57.134;-2.136;2023-03-16T00:49:42;99715.06;;;4.28;100.00
41862;BME280;27537;57.134;-2.136;2023-03-16T00:52:11;99722.13;;;4.54;100.00
41862;BME280;27537;57.134;-2.136;2023-03-16T00:54:45;99697.94;;;4.54;100.00
41862;BME280;27537;57.134;-2.136;2023-03-16T00:57:14;99705.28;;;4.69;100.00
41862;BME280;27537;57.134;-2.136;2023-03-16T00:59:43;99695.81;;;4.67;100.00
41862;BME280;27537;57.134;-2.136;2023-03-16T01:02:11;99668.34;;;4.61;100.00
41862;BME280;27537;57.134;-2.136;2023-03-16T01:04:38;99635.38;;;4.65;100.00
41862;BME280;27537;57.134;-2.136;2023-03-16T01:07:10;99621.47;;;4.39;100.00
41862;BME280;27537;57.134;-2.136;2023-03-16T01:09:41;99618.19;;;4.34;100.00
41862;BME280;27537;57.134;-2.136;2023-03-16T01:12:10;99655.34;;;4.63;100.00
41862;BME280;27537;57.134;-2.136;2023-03-16T01:14:38;99597.50;;;4.32;100.00
41862;BME280;27537;57.134;-2.136;2023-03-16T01:17:06;99547.63;;;4.24;100.00
41862;BME280;27537;57.134;-2.136;2023-03-16T01:19:35;99622.03;;;4.77;100.00
41862;BME280;27537;57.134;-2.136;2023-03-16T01:22:05;99560.50;;;4.55;100.00
41862;BME280;27537;57.134;-2.136;2023-03-16T01:24:33;99600.25;;;4.83;100.00
41862;BME280;27537;57.134;-2.136;2023-03-16T01:27:01;99582.88;;;4.85;100.00
41862;BME280;27537;57.134;-2.136;2023-03-16T01:29:28;99530.09;;;4.61;100.00
41862;BME280;27537;57.134;-2.136;2023-03-16T01:31:55;99538.41;;;4.70;100.00
41862;BME280;27537;57.134;-2.136;2023-03-16T01:34:22;99504.91;;;4.64;100.00
41862;BME280;27537;57.134;-2.136;2023-03-16T01:36:49;99565.88;;;5.03;100.00
41862;BME280;27537;57.134;-2.136;2023-03-16T01:39:16;99563.41;;;5.00;100.00
41862;BME280;27537;57.134;-2.136;2023-03-16T01:41:44;99517.34;;;4.80;100.00
41862;BME280;27537;57.134;-2.136;2023-03-16T01:44:14;99550.25;;;5.04;100.00
41862;BME280;27537;57.134;-2.136;2023-03-16T01:46:41;99555.53;;;4.74;100.00
41862;BME280;27537;57.134;-2.136;2023-03-16T01:49:19;99530.19;;;4.84;100.00
41862;BME280;27537;57.134;-2.136;2023-03-16T01:51:54;99539.19;;;4.99;100.00
41862;BME280;27537;57.134;-2.136;2023-03-16T01:54:35;99523.22;;;4.85;100.00
41862;BME280;27537;57.134;-2.136;2023-03-16T02:02:18;99450.63;;;4.85;100.00
41862;BME280;27537;57.134;-2.136;2023-03-16T02:04:53;99492.59;;;5.21;100.00
41862;BME280;27537;57.134;-2.136;2023-03-16T02:07:25;99454.97;;;4.84;100.00
41862;BME280;27537;57.134;-2.136;2023-03-16T02:09:56;99453.66;;;4.98;100.00
41862;BME280;27537;57.134;-2.136;2023-03-16T02:12:24;99453.38;;;5.05;100.00
41862;BME280;27537;57.134;-2.136;2023-03-16T02:14:51;99419.97;;;4.96;100.00
41862;BME280;27537;57.134;-2.136;2023-03-16T02:17:21;99446.31;;;5.09;100.00
41862;BME280;27537;57.134;-2.136;2023-03-16T02:22:51;99428.91;;;5.12;100.00
41862;BME280;27537;57.134;-2.136;2023-03-16T02:25:25;99383.31;;;5.05;100.00
41862;BME280;27537;57.134;-2.136;2023-03-16T02:28:04;99373.72;;;5.07;100.00
41862;BME280;27537;57.134;-2.136;2023-03-16T02:30:34;99388.84;;;5.20;100.00
41862;BME280;27537;57.134;-2.136;2023-03-16T02:33:01;99366.84;;;5.06;100.00
41862;BME280;27537;57.134;-2.136;2023-03-16T02:35:31;99356.34;;;5.09;100.00
41862;BME280;27537;57.134;-2.136;2023-03-16T02:37:58;99379.72;;;5.33;100.00
41862;BME280;27537;57.134;-2.136;2023-03-16T02:40:28;99332.63;;;4.97;100.00
41862;BME280;27537;57.134;-2.136;2023-03-16T02:43:06;99396.75;;;5.62;100.00
41862;BME280;27537;57.134;-2.136;2023-03-16T02:45:40;99401.53;;;5.51;100.00
41862;BME280;27537;57.134;-2.136;2023-03-16T02:48:13;99379.78;;;5.31;100.00
41862;BME280;27537;57.134;-2.136;2023-03-16T02:50:46;99382.38;;;5.54;100.00
41862;BME280;27537;57.134;-2.136;2023-03-16T02:53:15;99389.06;;;5.37;100.00
41862;BME280;27537;57.134;-2.136;2023-03-16T02:55:42;99371.06;;;5.32;100.00
41862;BME280;27537;57.134;-2.136;2023-03-16T02:58:10;99324.09;;;5.17;100.00
41862;BME280;27537;57.134;-2.136;2023-03-16T03:00:37;99340.59;;;5.38;100.00
41862;BME280;27537;57.134;-2.136;2023-03-16T03:03:05;99292.88;;;4.96;100.00
41862;BME280;27537;57.134;-2.136;2023-03-16T03:05:34;99331.13;;;5.37;100.00
41862;BME280;27537;57.134;-2.136;2023-03-16T03:08:01;99370.47;;;5.70;100.00
41862;BME280;27537;57.134;-2.136;2023-03-16T03:10:28;99290.59;;;5.32;100.00
41862;BME280;27537;57.134;-2.136;2023-03-16T03:12:55;99282.81;;;5.32;100.00
41862;BME280;27537;57.134;-2.136;2023-03-16T03:15:23;99297.56;;;5.32;100.00
41862;BME280;27537;57.134;-2.136;2023-03-16T03:17:50;99288.78;;;5.35;100.00
41862;BME280;27537;57.134;-2.136;2023-03-16T03:20:17;99302.84;;;5.29;100.00
41862;BME280;27537;57.134;-2.136;2023-03-16T03:22:47;99329.91;;;5.67;100.00
41862;BME280;27537;57.134;-2.136;2023-03-16T03:25:15;99263.81;;;5.32;100.00
41862;BME280;27537;57.134;-2.136;2023-03-16T03:27:43;99330.97;;;5.84;100.00
41862;BME280;27537;57.134;-2.136;2023-03-16T03:30:16;99330.75;;;5.68;100.00
41862;BME280;27537;57.134;-2.136;2023-03-16T03:32:43;99296.47;;;5.60;100.00
41862;BME280;27537;57.134;-2.136;2023-03-16T03:35:12;99259.75;;;5.47;100.00
41862;BME280;27537;57.134;-2.136;2023-03-16T03:37:40;99315.94;;;5.92;100.00
41862;BME280;27537;57.134;-2.136;2023-03-16T03:40:09;99308.47;;;5.62;100.00
41862;BME280;27537;57.134;-2.136;2023-03-16T03:42:39;99266.16;;;5.60;100.00
41862;BME280;27537;57.134;-2.136;2023-03-16T03:45:07;99242.66;;;5.63;100.00
41862;BME280;27537;57.134;-2.136;2023-03-16T03:47:34;99228.31;;;5.55;100.00
41862;BME280;27537;57.134;-2.136;2023-03-16T03:50:01;99208.19;;;5.60;100.00
41862;BME280;27537;57.134;-2.136;2023-03-16T03:52:27;99232.47;;;5.79;100.00
41862;BME280;27537;57.134;-2.136;2023-03-16T03:54:54;99195.72;;;5.47;100.00
41862;BME280;27537;57.134;-2.136;2023-03-16T03:57:21;99251.50;;;5.80;100.00
41862;BME280;27537;57.134;-2.136;2023-03-16T03:59:48;99252.75;;;5.92;100.00
41862;BME280;27537;57.134;-2.136;2023-03-16T04:02:14;99251.75;;;5.74;100.00
41862;BME280;27537;57.134;-2.136;2023-03-16T04:04:42;99243.03;;;5.97;100.00
41862;BME280;27537;57.134;-2.136;2023-03-16T04:07:09;99241.72;;;6.07;100.00
41862;BME280;27537;57.134;-2.136;2023-03-16T04:09:36;99209.09;;;5.79;100.00
41862;BME280;27537;57.134;-2.136;2023-03-16T04:12:04;99219.16;;;5.87;100.00
41862;BME280;27537;57.134;-2.136;2023-03-16T04:14:31;99253.41;;;6.17;100.00
41862;BME280;27537;57.134;-2.136;2023-03-16T04:16:58;99216.13;;;5.77;100.00
41862;BME280;27537;57.134;-2.136;2023-03-16T04:19:25;99211.44;;;5.85;100.00
41862;BME280;27537;57.134;-2.136;2023-03-16T04:21:52;99218.16;;;5.89;100.00
41862;BME280;27537;57.134;-2.136;2023-03-16T04:24:19;99199.59;;;6.00;100.00
41862;BME280;27537;57.134;-2.136;2023-03-16T04:26:47;99211.53;;;6.04;100.00
41862;BME280;27537;57.134;-2.136;2023-03-16T04:29:14;99204.31;;;6.11;100.00
41862;BME280;27537;57.134;-2.136;2023-03-16T04:31:44;99175.91;;;5.86;100.00
41862;BME280;27537;57.134;-2.136;2023-03-16T04:34:11;99208.72;;;6.09;100.00
41862;BME280;27537;57.134;-2.136;2023-03-16T04:36:39;99188.13;;;6.04;100.00
41862;BME280;27537;57.134;-2.136;2023-03-16T04:39:07;99158.38;;;5.91;100.00
41862;BME280;27537;57.134;-2.136;2023-03-16T04:41:36;99145.09;;;5.99;100.00
41862;BME280;27537;57.134;-2.136;2023-03-16T04:44:02;99153.00;;;5.96;100.00
41862;BME280;27537;57.134;-2.136;2023-03-16T04:46:30;99138.75;;;5.84;100.00
41862;BME280;27537;57.134;-2.136;2023-03-16T04:48:57;99096.06;;;5.70;100.00
41862;BME280;27537;57.134;-2.136;2023-03-16T04:51:24;99129.66;;;5.94;100.00
41862;BME280;27537;57.134;-2.136;2023-03-16T04:53:51;99139.66;;;6.03;100.00
41862;BME280;27537;57.134;-2.136;2023-03-16T04:56:18;99105.88;;;5.84;100.00
41862;BME280;27537;57.134;-2.136;2023-03-16T04:58:47;99108.38;;;5.86;100.00
41862;BME280;27537;57.134;-2.136;2023-03-16T05:01:14;99085.00;;;5.86;100.00
41862;BME280;27537;57.134;-2.136;2023-03-16T05:03:41;99151.06;;;6.39;100.00
41862;BME280;27537;57.134;-2.136;2023-03-16T05:06:09;99120.59;;;6.23;100.00
41862;BME280;27537;57.134;-2.136;2023-03-16T05:08:37;99129.72;;;6.13;100.00
41862;BME280;27537;57.134;-2.136;2023-03-16T05:11:04;99094.66;;;6.03;100.00
41862;BME280;27537;57.134;-2.136;2023-03-16T05:13:31;99081.88;;;5.98;100.00
41862;BME280;27537;57.134;-2.136;2023-03-16T05:15:58;99105.41;;;6.14;100.00
41862;BME280;27537;57.134;-2.136;2023-03-16T05:18:25;99073.34;;;5.95;100.00
41862;BME280;27537;57.134;-2.136;2023-03-16T05:20:53;99061.78;;;5.83;100.00
41862;BME280;27537;57.134;-2.136;2023-03-16T05:23:21;99105.97;;;6.21;100.00
41862;BME280;27537;57.134;-2.136;2023-03-16T05:25:49;99075.00;;;5.97;100.00
41862;BME280;27537;57.134;-2.136;2023-03-16T05:28:16;99115.53;;;6.39;100.00
41862;BME280;27537;57.134;-2.136;2023-03-16T05:30:43;99086.44;;;6.31;100.00
41862;BME280;27537;57.134;-2.136;2023-03-16T05:33:12;99057.53;;;6.20;100.00
41862;BME280;27537;57.134;-2.136;2023-03-16T05:35:39;99102.13;;;6.49;100.00
41862;BME280;27537;57.134;-2.136;2023-03-16T05:38:06;99061.53;;;6.27;100.00
41862;BME280;27537;57.134;-2.136;2023-03-16T05:40:34;99022.06;;;6.00;100.00
41862;BME280;27537;57.134;-2.136;2023-03-16T05:43:03;99082.44;;;6.43;100.00
41862;BME280;27537;57.134;-2.136;2023-03-16T05:45:30;99060.53;;;6.30;100.00
41862;BME280;27537;57.134;-2.136;2023-03-16T05:47:56;99056.91;;;6.15;100.00
41862;BME280;27537;57.134;-2.136;2023-03-16T05:50:24;99081.50;;;6.44;100.00
41862;BME280;27537;57.134;-2.136;2023-03-16T05:52:52;99027.63;;;6.11;100.00
41862;BME280;27537;57.134;-2.136;2023-03-16T05:55:19;99032.13;;;6.07;100.00
41862;BME280;27537;57.134;-2.136;2023-03-16T05:57:46;99057.78;;;6.33;100.00
41862;BME280;27537;57.134;-2.136;2023-03-16T06:00:13;99029.84;;;6.19;100.00
41862;BME280;27537;57.134;-2.136;2023-03-16T06:02:43;99051.47;;;6.38;100.00
41862;BME280;27537;57.134;-2.136;2023-03-16T06:05:10;99016.09;;;6.17;100.00
41862;BME280;27537;57.134;-2.136;2023-03-16T06:07:36;99051.00;;;6.47;100.00
41862;BME280;27537;57.134;-2.136;2023-03-16T06:10:05;99008.34;;;6.15;100.00
41862;BME280;27537;57.134;-2.136;2023-03-16T06:12:32;99005.44;;;6.21;100.00
41862;BME280;27537;57.134;-2.136;2023-03-16T06:15:00;99037.19;;;6.28;100.00
41862;BME280;27537;57.134;-2.136;2023-03-16T06:17:28;99052.91;;;6.44;100.00
41862;BME280;27537;57.134;-2.136;2023-03-16T06:19:54;99009.81;;;6.21;100.00
41862;BME280;27537;57.134;-2.136;2023-03-16T06:22:21;99002.72;;;6.24;100.00
41862;BME280;27537;57.134;-2.136;2023-03-16T06:24:50;99045.19;;;6.42;100.00
41862;BME280;27537;57.134;-2.136;2023-03-16T06:27:18;99043.63;;;6.57;100.00
41862;BME280;27537;57.134;-2.136;2023-03-16T06:29:50;99038.88;;;6.48;100.00
41862;BME280;27537;57.134;-2.136;2023-03-16T06:32:17;99035.97;;;6.54;100.00
41862;BME280;27537;57.134;-2.136;2023-03-16T06:34:44;98969.66;;;6.09;100.00
41862;BME280;27537;57.134;-2.136;2023-03-16T06:37:10;98979.81;;;5.95;100.00
41862;BME280;27537;57.134;-2.136;2023-03-16T06:39:37;98996.84;;;6.02;100.00
41862;BME280;27537;57.134;-2.136;2023-03-16T06:42:04;98982.63;;;6.09;100.00
41862;BME280;27537;57.134;-2.136;2023-03-16T06:44:31;98988.69;;;6.10;100.00
41862;BME280;27537;57.134;-2.136;2023-03-16T06:46:58;98979.13;;;6.29;100.00
41862;BME280;27537;57.134;-2.136;2023-03-16T06:49:25;98951.19;;;6.15;100.00
41862;BME280;27537;57.134;-2.136;2023-03-16T06:51:51;98948.72;;;6.12;100.00
41862;BME280;27537;57.134;-2.136;2023-03-16T06:54:18;98968.38;;;6.18;100.00
41862;BME280;27537;57.134;-2.136;2023-03-16T06:56:45;98979.88;;;6.31;100.00
41862;BME280;27537;57.134;-2.136;2023-03-16T06:59:12;99014.25;;;6.55;100.00
41862;BME280;27537;57.134;-2.136;2023-03-16T07:01:38;98964.19;;;6.15;100.00
41862;BME280;27537;57.134;-2.136;2023-03-16T07:04:05;98961.91;;;6.26;100.00
41862;BME280;27537;57.134;-2.136;2023-03-16T07:06:32;98980.56;;;6.35;100.00
41862;BME280;27537;57.134;-2.136;2023-03-16T07:08:59;98932.88;;;5.99;100.00
41862;BME280;27537;57.134;-2.136;2023-03-16T07:11:26;98979.25;;;6.26;100.00
41862;BME280;27537;57.134;-2.136;2023-03-16T07:13:53;98939.19;;;6.13;100.00
41862;BME280;27537;57.134;-2.136;2023-03-16T07:16:20;98944.00;;;6.20;100.00
41862;BME280;27537;57.134;-2.136;2023-03-16T07:18:47;98983.97;;;6.54;100.00
41862;BME280;27537;57.134;-2.136;2023-03-16T07:21:14;98928.03;;;6.28;100.00
41862;BME280;27537;57.134;-2.136;2023-03-16T07:23:41;98955.13;;;6.41;100.00
41862;BME280;27537;57.134;-2.136;2023-03-16T07:26:07;98945.19;;;6.32;100.00
41862;BME280;27537;57.134;-2.136;2023-03-16T07:28:34;98978.56;;;6.59;100.00
41862;BME280;27537;57.134;-2.136;2023-03-16T07:31:01;98932.00;;;6.35;100.00
41862;BME280;27537;57.134;-2.136;2023-03-16T07:33:32;98939.34;;;6.10;100.00
41862;BME280;27537;57.134;-2.136;2023-03-16T07:36:00;98929.25;;;6.21;100.00
41862;BME280;27537;57.134;-2.136;2023-03-16T07:38:32;98978.00;;;6.52;100.00
41862;BME280;27537;57.134;-2.136;2023-03-16T07:40:59;98946.63;;;6.38;100.00
41862;BME280;27537;57.134;-2.136;2023-03-16T07:43:26;98911.00;;;6.22;100.00
41862;BME280;27537;57.134;-2.136;2023-03-16T07:45:54;98965.16;;;6.67;100.00
41862;BME280;27537;57.134;-2.136;2023-03-16T07:48:21;98983.03;;;6.73;100.00
41862;BME280;27537;57.134;-2.136;2023-03-16T07:50:49;98934.94;;;6.46;100.00
41862;BME280;27537;57.134;-2.136;2023-03-16T07:53:16;98930.50;;;6.49;100.00
41862;BME280;27537;57.134;-2.136;2023-03-16T07:55:43;98966.53;;;6.74;100.00
41862;BME280;27537;57.134;-2.136;2023-03-16T07:58:11;98961.78;;;6.64;100.00
41862;BME280;27537;57.134;-2.136;2023-03-16T08:00:38;98918.97;;;6.54;100.00
41862;BME280;27537;57.134;-2.136;2023-03-16T08:03:05;98932.50;;;6.61;100.00
41862;BME280;27537;57.134;-2.136;2023-03-16T08:05:32;98921.47;;;6.56;100.00
41862;BME280;27537;57.134;-2.136;2023-03-16T08:08:00;98960.03;;;6.82;100.00
41862;BME280;27537;57.134;-2.136;2023-03-16T08:10:28;98920.25;;;6.63;100.00
41862;BME280;27537;57.134;-2.136;2023-03-16T08:12:55;98918.34;;;6.67;100.00
41862;BME280;27537;57.134;-2.136;2023-03-16T08:15:22;98906.34;;;6.64;100.00
41862;BME280;27537;57.134;-2.136;2023-03-16T08:17:49;98928.75;;;6.67;100.00
41862;BME280;27537;57.134;-2.136;2023-03-16T08:20:16;98936.22;;;6.73;100.00
41862;BME280;27537;57.134;-2.136;2023-03-16T08:22:44;98926.13;;;6.84;100.00
41862;BME280;27537;57.134;-2.136;2023-03-16T08:25:13;98846.69;;;6.43;100.00
41862;BME280;27537;57.134;-2.136;2023-03-16T08:27:40;98888.91;;;6.66;100.00
41862;BME280;27537;57.134;-2.136;2023-03-16T08:30:09;98829.59;;;6.22;100.00
41862;BME280;27537;57.134;-2.136;2023-03-16T08:32:38;98897.47;;;6.68;100.00
41862;BME280;27537;57.134;-2.136;2023-03-16T08:35:07;98899.34;;;6.82;100.00
41862;BME280;27537;57.134;-2.136;2023-03-16T08:37:35;98827.81;;;6.40;100.00
41862;BME280;27537;57.134;-2.136;2023-03-16T08:40:02;98880.41;;;6.80;100.00
41862;BME280;27537;57.134;-2.136;2023-03-16T08:42:31;98869.88;;;6.81;100.00
41862;BME280;27537;57.134;-2.136;2023-03-16T08:44:58;98859.75;;;6.77;100.00
41862;BME280;27537;57.134;-2.136;2023-03-16T08:47:26;98883.53;;;7.02;100.00
41862;BME280;27537;57.134;-2.136;2023-03-16T08:49:53;98897.00;;;7.11;100.00
41862;BME280;27537;57.134;-2.136;2023-03-16T08:52:19;98844.88;;;6.79;100.00
41862;BME280;27537;57.134;-2.136;2023-03-16T08:54:48;98886.69;;;6.92;100.00
41862;BME280;27537;57.134;-2.136;2023-03-16T08:57:29;98880.25;;;6.99;100.00
41862;BME280;27537;57.134;-2.136;2023-03-16T08:59:55;98822.72;;;6.72;100.00
41862;BME280;27537;57.134;-2.136;2023-03-16T09:02:22;98850.63;;;6.86;100.00
41862;BME280;27537;57.134;-2.136;2023-03-16T09:04:50;98874.28;;;6.97;100.00
41862;BME280;27537;57.134;-2.136;2023-03-16T09:07:18;98795.72;;;6.57;100.00
41862;BME280;27537;57.134;-2.136;2023-03-16T09:09:45;98850.13;;;6.95;100.00
41862;BME280;27537;57.134;-2.136;2023-03-16T09:12:11;98844.13;;;7.10;100.00
41862;BME280;27537;57.134;-2.136;2023-03-16T09:14:39;98885.00;;;7.40;100.00
41862;BME280;27537;57.134;-2.136;2023-03-16T09:17:06;98872.25;;;7.35;100.00
41862;BME280;27537;57.134;-2.136;2023-03-16T09:19:37;98804.97;;;6.96;100.00
41862;BME280;27537;57.134;-2.136;2023-03-16T09:22:24;98838.38;;;7.03;100.00
41862;BME280;27537;57.134;-2.136;2023-03-16T09:24:51;98829.75;;;6.70;100.00
41862;BME280;27537;57.134;-2.136;2023-03-16T09:27:18;98824.59;;;6.86;100.00
41862;BME280;27537;57.134;-2.136;2023-03-16T09:29:46;98839.59;;;7.14;100.00
41862;BME280;27537;57.134;-2.136;2023-03-16T09:32:14;98857.31;;;7.23;100.00
41862;BME280;27537;57.134;-2.136;2023-03-16T09:34:41;98801.69;;;6.92;100.00
41862;BME280;27537;57.134;-2.136;2023-03-16T09:37:08;98818.66;;;6.99;100.00
41862;BME280;27537;57.134;-2.136;2023-03-16T09:39:35;98825.31;;;7.21;100.00
41862;BME280;27537;57.134;-2.136;2023-03-16T09:47:40;98832.03;;;7.25;100.00
41862;BME280;27537;57.134;-2.136;2023-03-16T09:50:19;98802.03;;;7.18;100.00
41862;BME280;27537;57.134;-2.136;2023-03-16T09:52:52;98846.91;;;7.55;100.00
41862;BME280;27537;57.134;-2.136;2023-03-16T09:55:29;98794.16;;;7.35;100.00
41862;BME280;27537;57.134;-2.136;2023-03-16T09:57:58;98844.13;;;7.74;100.00
41862;BME280;27537;57.134;-2.136;2023-03-16T10:00:27;98834.78;;;7.70;100.00
41862;BME280;27537;57.134;-2.136;2023-03-16T10:05:54;98799.28;;;7.53;100.00
41862;BME280;27537;57.134;-2.136;2023-03-16T10:08:36;98841.16;;;7.80;100.00
41862;BME280;27537;57.134;-2.136;2023-03-16T10:11:14;98831.41;;;7.84;100.00
41862;BME280;27537;57.134;-2.136;2023-03-16T10:16:31;98787.13;;;7.68;100.00
41862;BME280;27537;57.134;-2.136;2023-03-16T10:19:09;98776.13;;;7.63;100.00
41862;BME280;27537;57.134;-2.136;2023-03-16T10:21:40;98752.78;;;7.61;100.00
41862;BME280;27537;57.134;-2.136;2023-03-16T10:27:30;98765.31;;;7.70;100.00
41862;BME280;27537;57.134;-2.136;2023-03-16T10:29:58;98817.31;;;8.02;100.00
41862;BME280;27537;57.134;-2.136;2023-03-16T10:32:31;98804.22;;;7.88;100.00
41862;BME280;27537;57.134;-2.136;2023-03-16T10:35:18;98802.53;;;8.03;100.00
41862;BME280;27537;57.134;-2.136;2023-03-16T10:37:48;98785.91;;;7.89;100.00
41862;BME280;27537;57.134;-2.136;2023-03-16T10:40:15;98767.69;;;7.73;100.00
41862;BME280;27537;57.134;-2.136;2023-03-16T10:42:55;98802.03;;;7.96;100.00
41862;BME280;27537;57.134;-2.136;2023-03-16T10:45:34;98815.94;;;8.11;100.00
41862;BME280;27537;57.134;-2.136;2023-03-16T10:48:11;98768.13;;;7.82;100.00
41862;BME280;27537;57.134;-2.136;2023-03-16T10:50:43;98770.22;;;7.75;100.00
41862;BME280;27537;57.134;-2.136;2023-03-16T10:53:27;98763.81;;;7.80;100.00
41862;BME280;27537;57.134;-2.136;2023-03-16T10:56:00;98737.66;;;7.68;100.00
41862;BME280;27537;57.134;-2.136;2023-03-16T10:58:32;98772.78;;;7.91;100.00
41862;BME280;27537;57.134;-2.136;2023-03-16T11:01:01;98725.16;;;7.58;100.00
41862;BME280;27537;57.134;-2.136;2023-03-16T11:03:31;98781.22;;;7.80;100.00
41862;BME280;27537;57.134;-2.136;2023-03-16T11:06:05;98775.03;;;7.83;100.00
41862;BME280;27537;57.134;-2.136;2023-03-16T11:08:36;98727.31;;;7.66;100.00
41862;BME280;27537;57.134;-2.136;2023-03-16T11:11:28;98777.38;;;8.02;100.00
41862;BME280;27537;57.134;-2.136;2023-03-16T11:13:58;98771.41;;;7.99;100.00
41862;BME280;27537;57.134;-2.136;2023-03-16T11:16:48;98777.88;;;8.08;100.00
41862;BME280;27537;57.134;-2.136;2023-03-16T11:19:26;98756.19;;;8.08;100.00
41862;BME280;27537;57.134;-2.136;2023-03-16T11:22:17;98764.56;;;8.13;100.00
41862;BME280;27537;57.134;-2.136;2023-03-16T11:27:44;98757.66;;;8.12;100.00
41862;BME280;27537;57.134;-2.136;2023-03-16T11:30:15;98760.59;;;8.22;100.00
41862;BME280;27537;57.134;-2.136;2023-03-16T11:32:49;98756.84;;;8.26;100.00
41862;BME280;27537;57.134;-2.136;2023-03-16T11:35:19;98743.31;;;8.05;100.00
41862;BME280;27537;57.134;-2.136;2023-03-16T11:38:23;98755.03;;;7.97;100.00
41862;BME280;27537;57.134;-2.136;2023-03-16T11:43:49;98746.25;;;8.14;100.00
41862;BME280;27537;57.134;-2.136;2023-03-16T11:46:35;98747.53;;;8.22;100.00
41862;BME280;27537;57.134;-2.136;2023-03-16T11:49:43;98705.41;;;7.85;100.00
41862;BME280;27537;57.134;-2.136;2023-03-16T11:52:20;98728.81;;;8.01;100.00
41862;BME280;27537;57.134;-2.136;2023-03-16T12:11:34;98717.81;;;8.10;100.00
41862;BME280;27537;57.134;-2.136;2023-03-16T12:14:18;98708.31;;;8.09;100.00
41862;BME280;27537;57.134;-2.136;2023-03-16T12:22:08;98694.91;;;8.01;100.00
41862;BME280;27537;57.134;-2.136;2023-03-16T12:24:42;98702.66;;;8.16;100.00
41862;BME280;27537;57.134;-2.136;2023-03-16T12:27:15;98694.09;;;8.14;100.00
41862;BME280;27537;57.134;-2.136;2023-03-16T12:30:20;98697.44;;;8.16;100.00
41862;BME280;27537;57.134;-2.136;2023-03-16T12:33:01;98700.16;;;8.15;100.00
41862;BME280;27537;57.134;-2.136;2023-03-16T12:44:14;98693.06;;;8.17;100.00
41862;BME280;27537;57.134;-2.136;2023-03-16T12:46:59;98687.28;;;8.26;100.00
41862;BME280;27537;57.134;-2.136;2023-03-16T12:49:34;98688.44;;;8.51;100.00
41862;BME280;27537;57.134;-2.136;2023-03-16T12:52:07;98697.47;;;8.60;100.00
41862;BME280;27537;57.134;-2.136;2023-03-16T12:55:04;98687.59;;;8.36;100.00
41862;BME280;27537;57.134;-2.136;2023-03-16T12:57:32;98623.59;;;8.16;100.00
41862;BME280;27537;57.134;-2.136;2023-03-16T13:00:00;98651.53;;;8.43;100.00
41862;BME280;27537;57.134;-2.136;2023-03-16T13:02:31;98649.41;;;8.49;100.00
41862;BME280;27537;57.134;-2.136;2023-03-16T13:05:12;98660.34;;;8.69;100.00
41862;BME280;27537;57.134;-2.136;2023-03-16T13:07:50;98631.75;;;8.67;100.00
41862;BME280;27537;57.134;-2.136;2023-03-16T13:10:18;98673.63;;;8.93;100.00
41862;BME280;27537;57.134;-2.136;2023-03-16T13:12:48;98636.00;;;8.55;100.00
41862;BME280;27537;57.134;-2.136;2023-03-16T13:21:18;98651.47;;;9.13;100.00
41862;BME280;27537;57.134;-2.136;2023-03-16T13:23:59;98657.84;;;9.62;100.00
41862;BME280;27537;57.134;-2.136;2023-03-16T13:26:40;98636.72;;;9.65;100.00
41862;BME280;27537;57.134;-2.136;2023-03-16T13:31:52;98647.06;;;9.66;100.00
41862;BME280;27537;57.134;-2.136;2023-03-16T13:34:23;98664.78;;;9.76;100.00
41862;BME280;27537;57.134;-2.136;2023-03-16T13:36:56;98636.66;;;9.79;100.00
41862;BME280;27537;57.134;-2.136;2023-03-16T13:39:28;98652.31;;;10.05;100.00
41862;BME280;27537;57.134;-2.136;2023-03-16T13:42:02;98664.25;;;10.35;100.00
41862;BME280;27537;57.134;-2.136;2023-03-16T13:44:31;98640.38;;;10.26;100.00
41862;BME280;27537;57.134;-2.136;2023-03-16T13:47:03;98615.72;;;10.05;100.00
41862;BME280;27537;57.134;-2.136;2023-03-16T13:49:30;98617.16;;;10.22;100.00
41862;BME280;27537;57.134;-2.136;2023-03-16T13:51:57;98627.28;;;10.26;100.00
41862;BME280;27537;57.134;-2.136;2023-03-16T13:54:28;98602.47;;;9.95;100.00
41862;BME280;27537;57.134;-2.136;2023-03-16T13:56:58;98640.88;;;10.44;100.00
41862;BME280;27537;57.134;-2.136;2023-03-16T13:59:27;98605.88;;;10.34;100.00
41862;BME280;27537;57.134;-2.136;2023-03-16T14:01:59;98638.50;;;10.78;100.00
41862;BME280;27537;57.134;-2.136;2023-03-16T14:04:30;98639.63;;;10.87;100.00
41862;BME280;27537;57.134;-2.136;2023-03-16T14:06:59;98617.91;;;10.98;100.00
41862;BME280;27537;57.134;-2.136;2023-03-16T14:09:31;98605.72;;;10.86;100.00
41862;BME280;27537;57.134;-2.136;2023-03-16T14:12:00;98581.47;;;10.71;100.00
41862;BME280;27537;57.134;-2.136;2023-03-16T14:14:31;98616.34;;;10.95;100.00